METAR Data
IDs: Format: Raw Decoded Include TAF

Data at: 1408 UTC 27 Nov 2021

KMKT 271356Z AUTO 30010KT 10SM BKN120 03/M02 A2976 RMK AO2 SLP090 T00281017